Time;durP1;ratioP1;P1;durP2;ratioP2;P2;SDS_P1;SDS_P2;PMS_P1;PMS_P2;Temp;Humidity;BMP_temperature;BMP_pressure;BME280_temperature;BME280_humidity;BME280_pressure;Samples;Min_cycle;Max_cycle;Signal;HPM_P1;HPM_P2
2023/06/29 00:01:57;;;;;;;5.57;2.20;;;20.60;52.20;;;;;;6142069;22;114943;-79
2023/06/29 00:04:25;;;;;;;4.18;2.40;;;20.60;51.90;;;;;;6141282;22;116124;-79
2023/06/29 00:06:54;;;;;;;4.50;2.55;;;20.60;52.10;;;;;;6143237;22;114021;-79
2023/06/29 00:09:22;;;;;;;4.00;2.22;;;20.60;52.50;;;;;;6143267;22;114484;-79
2023/06/29 00:11:49;;;;;;;3.92;2.00;;;20.60;52.30;;;;;;6143690;22;115186;-80
2023/06/29 00:14:16;;;;;;;3.90;2.20;;;20.60;52.00;;;;;;6142665;22;115990;-80
2023/06/29 00:16:44;;;;;;;3.40;2.10;;;20.60;51.90;;;;;;6144268;22;114487;-80
2023/06/29 00:19:14;;;;;;;5.57;2.45;;;20.70;51.70;;;;;;6145071;22;114096;-80
2023/06/29 00:21:42;;;;;;;4.13;1.88;;;20.70;51.70;;;;;;6141955;22;116054;-79
2023/06/29 00:24:11;;;;;;;5.00;2.47;;;20.70;51.60;;;;;;6142011;22;114616;-80
2023/06/29 00:26:38;;;;;;;3.83;2.10;;;20.70;51.80;;;;;;6118241;22;114370;-80
2023/06/29 00:29:06;;;;;;;4.00;2.45;;;20.60;51.80;;;;;;6144324;22;115094;-79
2023/06/29 00:31:35;;;;;;;5.47;2.75;;;20.60;51.90;;;;;;6141549;22;114805;-80
2023/06/29 00:34:02;;;;;;;4.47;2.33;;;20.70;51.90;;;;;;6116490;22;114675;-80
2023/06/29 00:36:31;;;;;;;3.80;2.40;;;20.60;51.90;;;;;;6142870;22;114372;-79
2023/06/29 00:38:59;;;;;;;3.60;2.30;;;20.70;52.10;;;;;;6144320;22;114309;-80
2023/06/29 00:41:26;;;;;;;5.82;2.55;;;20.60;52.20;;;;;;6141568;22;115817;-79
2023/06/29 00:43:55;;;;;;;5.07;2.78;;;20.60;52.50;;;;;;6143160;22;114971;-80
2023/06/29 00:46:23;;;;;;;4.97;2.17;;;20.60;52.80;;;;;;6142550;22;114114;-80
2023/06/29 00:48:51;;;;;;;4.30;2.53;;;20.60;52.30;;;;;;6118256;22;114142;-79
2023/06/29 00:51:19;;;;;;;4.15;2.33;;;20.60;52.50;;;;;;6141352;22;116147;-80
2023/06/29 00:53:46;;;;;;;3.08;2.03;;;20.60;52.30;;;;;;6116437;22;116394;-80
2023/06/29 00:56:13;;;;;;;4.47;2.28;;;20.60;52.20;;;;;;6143940;22;114089;-80
2023/06/29 00:58:41;;;;;;;3.10;1.88;;;20.70;52.40;;;;;;6117993;22;114366;-79
2023/06/29 01:01:08;;;;;;;3.72;2.13;;;20.60;52.20;;;;;;6141637;22;114823;-80
2023/06/29 01:03:36;;;;;;;4.03;2.40;;;20.70;52.20;;;;;;6142806;22;114497;-79
2023/06/29 01:06:04;;;;;;;4.20;2.33;;;20.60;52.90;;;;;;6117970;22;114125;-79
2023/06/29 01:08:38;;;;;;;4.63;2.20;;;20.60;52.60;;;;;;6142943;22;114364;-80
2023/06/29 01:11:07;;;;;;;6.90;2.75;;;20.60;52.20;;;;;;6141563;22;114955;-79
2023/06/29 01:13:35;;;;;;;3.92;2.00;;;20.60;52.80;;;;;;6115583;22;116610;-79
2023/06/29 01:16:02;;;;;;;5.22;2.97;;;20.60;52.10;;;;;;6142807;22;114044;-80
2023/06/29 01:18:30;;;;;;;3.88;2.20;;;20.70;52.70;;;;;;6117547;22;114179;-80
2023/06/29 01:20:58;;;;;;;5.88;3.00;;;20.70;52.10;;;;;;6116661;22;114892;-79
2023/06/29 01:23:26;;;;;;;3.72;2.35;;;20.70;52.40;;;;;;6141200;22;114609;-80
2023/06/29 01:25:54;;;;;;;4.15;2.88;;;20.70;52.10;;;;;;6144076;22;114847;-80
2023/06/29 01:28:21;;;;;;;4.35;2.67;;;20.70;52.40;;;;;;6118390;22;114073;-80
2023/06/29 01:30:49;;;;;;;5.15;2.40;;;20.60;52.40;;;;;;6116966;22;114816;-80
2023/06/29 01:33:21;;;;;;;4.15;2.40;;;20.60;52.40;;;;;;6141351;22;114922;-80
2023/06/29 01:35:50;;;;;;;3.97;2.53;;;20.60;52.60;;;;;;6117587;22;114251;-80
2023/06/29 01:38:43;;;;;;;5.93;2.88;;;20.60;52.70;;;;;;6117783;22;114381;-80
2023/06/29 01:41:10;;;;;;;4.63;3.00;;;20.60;52.70;;;;;;6112225;22;116151;-79
2023/06/29 01:43:38;;;;;;;7.05;3.35;;;20.50;53.10;;;;;;6116333;22;118688;-79
2023/06/29 01:46:05;;;;;;;4.15;2.63;;;20.60;53.40;;;;;;6141761;22;114088;-78
2023/06/29 01:48:32;;;;;;;5.47;2.80;;;20.60;52.50;;;;;;6117235;22;114230;-79
2023/06/29 01:51:00;;;;;;;4.13;2.33;;;20.60;52.80;;;;;;6140937;22;114949;-78
2023/06/29 01:53:28;;;;;;;5.03;2.50;;;20.60;52.50;;;;;;6116577;22;114663;-79
2023/06/29 01:55:59;;;;;;;5.70;3.30;;;20.60;52.90;;;;;;6144585;22;114055;-79
2023/06/29 01:58:27;;;;;;;5.00;2.78;;;20.60;53.40;;;;;;6143344;22;114307;-79
2023/06/29 02:00:54;;;;;;;4.65;2.72;;;20.60;53.00;;;;;;6142490;22;115228;-80
2023/06/29 02:03:22;;;;;;;4.28;2.33;;;20.60;52.80;;;;;;6142431;22;114620;-79
2023/06/29 02:05:50;;;;;;;4.93;2.75;;;20.60;52.50;;;;;;6142350;22;114311;-79
2023/06/29 02:08:18;;;;;;;4.78;2.58;;;20.60;52.50;;;;;;6143649;22;113990;-80
2023/06/29 02:10:46;;;;;;;5.47;2.90;;;20.60;52.60;;;;;;6141983;22;114826;-79
2023/06/29 02:13:16;;;;;;;4.80;2.90;;;20.70;52.70;;;;;;6142268;22;114775;-79
2023/06/29 02:15:43;;;;;;;6.53;2.97;;;20.70;52.90;;;;;;6118855;22;114329;-79
2023/06/29 02:18:10;;;;;;;5.93;4.07;;;20.70;52.90;;;;;;6144147;22;114617;-79
2023/06/29 02:20:40;;;;;;;4.40;2.30;;;20.70;53.50;;;;;;6142919;22;114879;-79
2023/06/29 02:23:09;;;;;;;5.13;3.25;;;20.70;52.50;;;;;;6141948;22;114762;-79
2023/06/29 02:25:36;;;;;;;3.90;2.75;;;20.70;53.30;;;;;;6142420;22;114098;-80
2023/06/29 02:28:04;;;;;;;4.65;2.78;;;20.70;52.60;;;;;;6141931;22;114845;-80
2023/06/29 02:30:31;;;;;;;4.82;2.50;;;20.70;52.60;;;;;;6140599;22;116920;-80
2023/06/29 02:32:58;;;;;;;7.20;4.32;;;20.70;52.80;;;;;;6117012;22;114550;-78
2023/06/29 02:35:26;;;;;;;6.30;3.15;;;20.70;53.50;;;;;;6142577;22;114392;-79
2023/06/29 02:37:53;;;;;;;4.15;2.60;;;20.70;52.80;;;;;;6117559;22;114493;-79
2023/06/29 02:40:22;;;;;;;6.32;3.17;;;20.70;52.60;;;;;;6092479;22;115386;-78
2023/06/29 02:42:49;;;;;;;6.28;2.78;;;20.70;52.60;;;;;;6141628;22;114630;-79
2023/06/29 02:45:16;;;;;;;5.72;2.60;;;20.70;52.60;;;;;;6117451;22;114124;-79
2023/06/29 02:47:44;;;;;;;6.32;3.92;;;20.70;52.60;;;;;;6142967;22;114633;-78
2023/06/29 02:50:11;;;;;;;5.70;3.05;;;20.70;53.20;;;;;;6143033;22;114775;-78
2023/06/29 02:52:44;;;;;;;7.43;4.15;;;20.70;53.00;;;;;;6092741;22;116253;-79
2023/06/29 02:55:11;;;;;;;5.90;3.08;;;20.70;53.20;;;;;;6116909;22;114615;-78
2023/06/29 02:57:39;;;;;;;7.65;5.20;;;20.70;52.70;;;;;;6117679;22;114893;-78
2023/06/29 03:00:08;;;;;;;9.57;5.38;;;20.70;53.60;;;;;;6141086;22;114970;-79
2023/06/29 03:02:37;;;;;;;5.45;3.25;;;20.70;53.60;;;;;;6140789;22;114586;-80
2023/06/29 03:05:04;;;;;;;10.48;5.80;;;20.70;52.80;;;;;;6143217;22;114393;-79
2023/06/29 03:07:32;;;;;;;7.60;4.55;;;20.70;53.40;;;;;;6142271;22;114025;-79
2023/06/29 03:10:01;;;;;;;8.07;4.05;;;20.70;53.20;;;;;;6141079;22;114770;-79
2023/06/29 03:12:29;;;;;;;9.32;4.88;;;20.70;53.20;;;;;;6142917;22;114473;-79
2023/06/29 03:14:56;;;;;;;7.68;5.03;;;20.60;53.40;;;;;;6141810;22;114408;-80
2023/06/29 03:17:24;;;;;;;7.90;4.13;;;20.60;53.70;;;;;;6142639;22;114339;-79
2023/06/29 03:19:51;;;;;;;6.22;3.97;;;20.70;53.20;;;;;;6140190;22;115632;-79
2023/06/29 03:22:19;;;;;;;6.47;4.10;;;20.70;53.20;;;;;;6141023;22;114634;-79
2023/06/29 03:24:46;;;;;;;6.97;3.45;;;20.70;53.30;;;;;;6143124;22;114385;-79
2023/06/29 03:27:13;;;;;;;7.75;5.03;;;20.70;53.00;;;;;;6143179;22;114085;-78
2023/06/29 03:29:40;;;;;;;7.55;4.95;;;20.70;53.50;;;;;;6141824;22;116319;-80
2023/06/29 03:32:08;;;;;;;11.32;4.63;;;20.70;53.80;;;;;;6139866;22;114656;-78
2023/06/29 03:34:36;;;;;;;7.32;4.13;;;20.70;53.80;;;;;;6141623;22;114135;-78
2023/06/29 03:37:04;;;;;;;6.32;4.13;;;20.70;53.60;;;;;;6117186;22;114645;-79
2023/06/29 03:39:32;;;;;;;5.72;3.40;;;20.70;53.30;;;;;;6139785;22;114930;-78
2023/06/29 03:41:59;;;;;;;7.05;4.45;;;20.70;52.90;;;;;;6139940;22;117867;-79
2023/06/29 03:44:26;;;;;;;7.88;4.25;;;20.80;53.30;;;;;;6142445;22;114227;-78
2023/06/29 03:46:53;;;;;;;8.68;4.35;;;20.70;53.20;;;;;;6143185;22;114134;-79
2023/06/29 03:49:23;;;;;;;7.13;3.55;;;20.70;53.30;;;;;;6140246;22;115398;-79
2023/06/29 03:51:50;;;;;;;6.53;3.92;;;20.80;52.70;;;;;;6140010;22;114671;-79
2023/06/29 03:54:17;;;;;;;10.57;5.28;;;20.70;52.90;;;;;;6142989;22;114370;-78
2023/06/29 03:56:44;;;;;;;6.47;3.78;;;20.80;53.90;;;;;;6142904;22;114404;-79
2023/06/29 03:59:11;;;;;;;10.63;6.40;;;20.80;53.30;;;;;;6139052;22;114991;-79
2023/06/29 04:01:38;;;;;;;8.38;4.47;;;20.80;54.10;;;;;;6140615;22;114684;-79
2023/06/29 04:04:06;;;;;;;8.30;5.38;;;20.70;53.30;;;;;;6141492;22;114213;-79
2023/06/29 04:06:33;;;;;;;7.07;5.47;;;20.70;53.40;;;;;;6141189;22;114314;-79
2023/06/29 04:09:01;;;;;;;8.60;5.28;;;20.70;53.10;;;;;;6138929;22;116150;-79
2023/06/29 04:11:28;;;;;;;8.48;5.03;;;20.80;52.90;;;;;;6141350;22;114693;-78
2023/06/29 04:13:56;;;;;;;7.25;5.35;;;20.80;53.10;;;;;;6142312;22;114230;-79
2023/06/29 04:16:26;;;;;;;8.32;6.30;;;20.80;53.30;;;;;;6140671;22;114118;-79
2023/06/29 04:18:53;;;;;;;10.43;5.47;;;20.80;54.10;;;;;;6140099;22;114869;-79
2023/06/29 04:21:20;;;;;;;7.63;5.40;;;20.80;53.80;;;;;;6141188;22;114869;-79
2023/06/29 04:23:47;;;;;;;7.97;5.95;;;20.80;53.20;;;;;;6140971;22;114292;-79
2023/06/29 04:26:15;;;;;;;6.75;4.60;;;20.80;54.20;;;;;;6116691;22;114189;-80
2023/06/29 04:28:44;;;;;;;8.75;5.57;;;20.80;53.10;;;;;;6141908;22;115389;-79
2023/06/29 04:31:11;;;;;;;7.78;5.20;;;20.80;54.40;;;;;;6141236;22;114678;-79
2023/06/29 04:33:41;;;;;;;7.85;5.00;;;20.80;54.00;;;;;;6140142;22;114368;-78
2023/06/29 04:36:13;;;;;;;11.18;5.40;;;20.80;53.40;;;;;;6143020;22;114562;-79
2023/06/29 04:38:40;;;;;;;6.95;5.57;;;20.80;53.80;;;;;;6140101;22;115437;-79
2023/06/29 04:41:09;;;;;;;9.90;6.47;;;20.80;54.20;;;;;;6141419;22;114548;-78
2023/06/29 04:43:36;;;;;;;7.80;6.00;;;20.80;54.80;;;;;;6141472;22;114000;-79
2023/06/29 04:46:04;;;;;;;7.85;5.32;;;20.80;54.30;;;;;;6143172;22;114166;-78
2023/06/29 04:48:36;;;;;;;5.88;4.32;;;20.70;54.30;;;;;;6140326;22;115752;-78
2023/06/29 04:51:05;;;;;;;6.53;4.47;;;20.70;53.70;;;;;;6117542;22;118454;-78
2023/06/29 04:53:33;;;;;;;6.30;4.32;;;20.70;53.50;;;;;;6143416;22;114028;-79
2023/06/29 04:56:04;;;;;;;7.15;4.25;;;20.70;53.60;;;;;;6144113;22;114729;-80
2023/06/29 04:58:31;;;;;;;7.63;5.75;;;20.70;53.70;;;;;;6116880;22;118265;-78
2023/06/29 05:00:59;;;;;;;8.15;4.57;;;20.70;54.70;;;;;;6143414;22;114628;-79
2023/06/29 05:03:26;;;;;;;8.98;5.70;;;20.70;53.80;;;;;;6143266;22;114175;-78
2023/06/29 05:05:54;;;;;;;9.05;5.05;;;20.80;54.80;;;;;;6142843;22;114362;-79
2023/06/29 05:08:21;;;;;;;7.45;4.60;;;20.80;54.20;;;;;;6142943;22;114747;-78
2023/06/29 05:10:49;;;;;;;6.43;3.75;;;20.80;54.00;;;;;;6143297;22;114605;-79
2023/06/29 05:13:16;;;;;;;7.13;4.72;;;20.80;53.50;;;;;;6143045;22;115288;-79
2023/06/29 05:15:47;;;;;;;7.47;4.90;;;20.80;53.90;;;;;;6144822;22;114075;-77
2023/06/29 05:18:16;;;;;;;7.55;4.50;;;20.80;54.20;;;;;;6140004;22;114824;-79
2023/06/29 05:20:43;;;;;;;7.05;5.03;;;20.80;53.70;;;;;;6139943;22;115688;-79
2023/06/29 05:23:12;;;;;;;7.95;4.43;;;20.90;53.60;;;;;;6141164;22;114516;-79
2023/06/29 05:25:40;;;;;;;6.03;4.20;;;21.00;53.40;;;;;;6142567;22;114153;-79
2023/06/29 05:28:10;;;;;;;6.80;3.97;;;20.90;53.60;;;;;;6116320;22;116022;-80
2023/06/29 05:30:38;;;;;;;6.28;3.72;;;20.90;53.10;;;;;;6115537;22;114765;-80
2023/06/29 05:33:05;;;;;;;5.60;4.05;;;21.00;52.80;;;;;;6141799;22;114152;-79
2023/06/29 05:35:36;;;;;;;7.13;4.80;;;20.90;53.10;;;;;;6142217;22;114562;-79
2023/06/29 05:38:04;;;;;;;7.80;5.65;;;21.00;53.50;;;;;;6140945;22;116187;-80
2023/06/29 05:40:33;;;;;;;7.88;4.13;;;20.90;54.10;;;;;;6140649;22;115665;-78
2023/06/29 05:43:05;;;;;;;7.40;4.03;;;20.80;53.60;;;;;;6142326;22;114437;-79
2023/06/29 05:46:28;;;;;;;6.72;4.13;;;20.90;53.20;;;;;;6045907;23;114465;-78
2023/06/29 05:49:03;;;;;;;5.97;3.72;;;20.80;53.20;;;;;;6000651;23;118357;-79
2023/06/29 05:52:33;;;;;;;7.43;4.63;;;20.90;53.30;;;;;;5938899;23;116424;-79
2023/06/29 05:55:16;;;;;;;5.60;3.63;;;20.80;53.30;;;;;;5940245;23;114479;-81
2023/06/29 05:57:55;;;;;;;6.90;5.60;;;21.00;53.00;;;;;;5963996;23;114729;-79
2023/06/29 06:00:22;;;;;;;8.18;4.78;;;21.00;53.90;;;;;;5967525;23;116973;-78
2023/06/29 06:02:50;;;;;;;10.68;7.00;;;21.00;53.70;;;;;;6076592;23;115177;-80
2023/06/29 06:05:17;;;;;;;7.25;6.55;;;21.00;54.30;;;;;;6079475;23;114453;-80
2023/06/29 06:07:45;;;;;;;7.47;4.82;;;21.10;54.30;;;;;;6080442;23;114484;-78
2023/06/29 06:10:12;;;;;;;7.93;4.65;;;21.10;53.70;;;;;;6139376;22;115460;-79
2023/06/29 06:12:39;;;;;;;6.95;4.80;;;21.20;53.10;;;;;;6140498;22;114625;-79
2023/06/29 06:15:11;;;;;;;6.93;5.90;;;21.20;53.30;;;;;;6140955;22;115520;-77
2023/06/29 06:17:38;;;;;;;6.55;4.30;;;21.30;53.60;;;;;;6138141;22;114394;-79
2023/06/29 06:20:06;;;;;;;7.40;3.85;;;21.30;53.30;;;;;;6140417;22;116711;-79
2023/06/29 06:23:21;;;;;;;9.73;4.97;;;21.30;52.70;;;;;;6114888;22;114576;-80
2023/06/29 06:25:50;;;;;;;6.32;4.40;;;21.50;52.70;;;;;;6134412;22;114483;-80
2023/06/29 06:28:18;;;;;;;7.78;6.95;;;21.40;52.70;;;;;;6111682;23;114203;-80
2023/06/29 06:30:46;;;;;;;7.05;4.55;;;21.50;53.90;;;;;;6110340;23;115084;-78
2023/06/29 06:33:15;;;;;;;8.52;6.72;;;21.50;52.40;;;;;;6108643;23;114616;-79
2023/06/29 06:35:44;;;;;;;6.68;5.00;;;21.50;53.30;;;;;;6111621;23;115028;-79
2023/06/29 06:38:11;;;;;;;9.25;5.88;;;21.60;52.70;;;;;;6133811;22;114278;-79
2023/06/29 06:40:41;;;;;;;9.07;5.30;;;21.50;52.90;;;;;;6133333;22;114982;-78
2023/06/29 06:43:08;;;;;;;7.18;5.40;;;21.50;53.00;;;;;;6109051;23;115069;-80
2023/06/29 06:45:37;;;;;;;10.68;6.10;;;21.50;52.80;;;;;;6135476;22;114297;-78
2023/06/29 06:48:05;;;;;;;6.47;4.43;;;21.50;53.10;;;;;;6135381;22;114404;-79
2023/06/29 06:50:32;;;;;;;8.18;7.18;;;21.40;52.70;;;;;;6110676;23;116808;-79
2023/06/29 06:53:00;;;;;;;8.77;5.28;;;21.40;54.10;;;;;;6108146;23;117687;-79
2023/06/29 06:55:27;;;;;;;9.93;7.55;;;21.40;53.40;;;;;;6112201;23;114359;-79
2023/06/29 06:57:55;;;;;;;7.32;5.60;;;21.30;54.60;;;;;;6112408;23;114075;-79
2023/06/29 07:00:22;;;;;;;11.27;6.60;;;21.30;53.50;;;;;;6108950;23;116867;-78
2023/06/29 07:02:49;;;;;;;6.55;5.75;;;21.30;53.40;;;;;;6133788;22;114738;-78
2023/06/29 07:05:16;;;;;;;9.52;7.82;;;21.30;53.60;;;;;;6110930;23;114248;-79
2023/06/29 07:07:46;;;;;;;10.13;8.10;;;21.30;53.90;;;;;;6111742;23;114182;-78
2023/06/29 07:10:13;;;;;;;10.60;6.43;;;21.30;54.20;;;;;;6110696;23;114864;-79
2023/06/29 07:12:40;;;;;;;6.40;5.68;;;21.20;53.70;;;;;;6084127;23;114784;-78
2023/06/29 07:15:11;;;;;;;7.53;4.93;;;21.20;53.50;;;;;;6083315;23;114334;-79
2023/06/29 07:17:40;;;;;;;9.07;7.25;;;21.20;53.30;;;;;;6110820;23;114455;-78
2023/06/29 07:20:08;;;;;;;8.30;6.15;;;21.20;53.80;;;;;;6084279;23;114923;-80
2023/06/29 07:22:38;;;;;;;12.13;8.90;;;21.20;53.90;;;;;;6110330;23;116723;-80
2023/06/29 07:25:11;;;;;;;6.97;4.82;;;21.10;54.30;;;;;;6109710;23;114320;-79
2023/06/29 07:27:38;;;;;;;8.60;5.75;;;21.10;53.50;;;;;;6110183;23;115466;-79
2023/06/29 07:30:06;;;;;;;10.82;8.63;;;21.20;53.50;;;;;;6108055;23;116238;-79
2023/06/29 07:32:34;;;;;;;12.60;8.23;;;21.20;54.30;;;;;;6110181;23;115803;-79
2023/06/29 07:35:02;;;;;;;8.30;7.00;;;21.30;54.20;;;;;;6111385;23;115484;-78
2023/06/29 07:37:29;;;;;;;15.85;12.45;;;21.30;53.80;;;;;;6111362;22;114423;-79
2023/06/29 07:39:57;;;;;;;10.60;8.65;;;21.40;54.80;;;;;;6110416;23;115103;-78
2023/06/29 07:42:24;;;;;;;13.13;10.65;;;21.40;53.20;;;;;;6110288;23;115469;-80
2023/06/29 07:45:06;;;;;;;15.07;13.45;;;21.50;53.90;;;;;;6111013;23;114534;-78
2023/06/29 07:47:33;;;;;;;8.93;7.57;;;21.50;54.20;;;;;;6109657;23;114243;-78
2023/06/29 07:50:02;;;;;;;11.73;10.35;;;21.40;53.00;;;;;;6108397;23;118311;-80
2023/06/29 07:52:30;;;;;;;13.07;11.05;;;21.30;53.80;;;;;;6084965;23;114666;-80
2023/06/29 07:54:58;;;;;;;10.65;9.55;;;21.30;54.00;;;;;;6111131;22;114288;-78
2023/06/29 07:57:25;;;;;;;12.40;9.68;;;21.30;54.10;;;;;;6111846;23;114416;-80
2023/06/29 07:59:56;;;;;;;10.73;8.77;;;21.20;53.80;;;;;;6111085;23;115187;-78
2023/06/29 08:02:23;;;;;;;8.80;7.63;;;21.30;53.30;;;;;;6109469;23;114907;-79
2023/06/29 08:04:50;;;;;;;13.98;12.23;;;21.40;53.10;;;;;;6112015;22;114126;-79
2023/06/29 08:07:22;;;;;;;10.00;7.82;;;21.40;54.60;;;;;;6111246;22;114339;-78
2023/06/29 08:09:49;;;;;;;11.18;8.30;;;21.50;53.10;;;;;;6110542;23;114978;-79
2023/06/29 08:12:17;;;;;;;10.73;8.13;;;21.50;52.90;;;;;;6109714;23;114615;-80
2023/06/29 08:14:44;;;;;;;11.10;9.98;;;21.60;53.10;;;;;;6109537;23;114674;-79
2023/06/29 08:17:11;;;;;;;12.95;11.65;;;21.70;53.10;;;;;;6110186;23;114396;-79
2023/06/29 08:19:39;;;;;;;14.07;12.60;;;21.60;53.90;;;;;;6109085;23;115016;-79
2023/06/29 08:22:06;;;;;;;11.20;8.88;;;21.60;54.00;;;;;;6108940;23;116183;-80
2023/06/29 08:24:35;;;;;;;12.57;10.25;;;21.40;52.90;;;;;;6108918;23;114395;-80
2023/06/29 08:27:11;;;;;;;9.02;7.93;;;21.50;53.60;;;;;;6112718;23;114224;-80
2023/06/29 08:30:00;;;;;;;9.65;7.63;;;21.40;53.20;;;;;;6078997;23;115161;-80
2023/06/29 08:32:29;;;;;;;9.27;8.05;;;21.50;53.30;;;;;;6080289;23;117797;-79
2023/06/29 08:34:56;;;;;;;9.20;8.18;;;21.50;52.60;;;;;;6081357;23;114524;-79
2023/06/29 08:37:24;;;;;;;12.23;10.27;;;21.70;53.00;;;;;;6081961;23;114567;-79
2023/06/29 08:39:51;;;;;;;11.80;9.60;;;21.90;52.70;;;;;;6055915;23;114779;-80
2023/06/29 08:42:18;;;;;;;11.65;10.55;;;22.00;53.10;;;;;;6080443;23;116844;-79
2023/06/29 08:44:45;;;;;;;12.95;11.35;;;22.20;53.40;;;;;;6081425;23;114297;-80
2023/06/29 08:47:12;;;;;;;11.80;9.95;;;22.30;52.80;;;;;;6081650;23;114196;-79
2023/06/29 08:49:42;;;;;;;13.10;11.80;;;22.20;52.10;;;;;;6056856;23;115556;-79
2023/06/29 08:52:12;;;;;;;12.73;11.48;;;22.20;52.80;;;;;;6056456;23;115068;-80
2023/06/29 08:54:39;;;;;;;12.93;11.10;;;22.20;52.50;;;;;;6056724;23;114484;-79
2023/06/29 08:57:06;;;;;;;14.25;10.95;;;22.30;52.30;;;;;;6057244;23;114510;-79
2023/06/29 08:59:34;;;;;;;10.93;9.82;;;22.50;52.20;;;;;;6055537;23;117822;-80
2023/06/29 09:02:03;;;;;;;12.05;10.77;;;22.60;50.50;;;;;;6056497;23;114651;-78
2023/06/29 09:04:30;;;;;;;11.98;10.55;;;22.70;50.40;;;;;;6056745;23;114388;-78
2023/06/29 09:06:57;;;;;;;11.05;9.25;;;22.60;50.40;;;;;;6078435;23;114401;-79
2023/06/29 09:09:24;;;;;;;10.25;8.77;;;22.50;51.20;;;;;;6110491;23;114886;-80
2023/06/29 09:11:52;;;;;;;11.57;10.23;;;22.50;50.20;;;;;;6110666;23;115759;-79
2023/06/29 09:14:20;;;;;;;10.27;9.15;;;22.60;50.30;;;;;;6136868;22;115212;-80
2023/06/29 09:16:57;;;;;;;11.50;10.30;;;22.50;50.50;;;;;;6088075;23;114296;-79
2023/06/29 09:19:28;;;;;;;11.75;10.55;;;22.70;51.40;;;;;;6109982;23;117048;-80
2023/06/29 09:21:56;;;;;;;11.73;8.65;;;22.70;50.40;;;;;;6111162;23;114530;-79
2023/06/29 09:24:27;;;;;;;14.52;11.77;;;22.70;50.00;;;;;;6112358;23;114256;-79
2023/06/29 09:26:55;;;;;;;13.48;12.07;;;22.80;50.60;;;;;;6113723;22;114179;-79
2023/06/29 09:29:23;;;;;;;11.82;10.32;;;22.60;50.80;;;;;;6111042;23;114892;-80
2023/06/29 09:31:54;;;;;;;11.77;10.57;;;22.50;50.70;;;;;;6086843;23;117449;-79
2023/06/29 09:34:22;;;;;;;10.25;9.23;;;22.50;51.60;;;;;;6111486;23;114213;-79
2023/06/29 09:36:49;;;;;;;11.13;9.10;;;22.50;50.80;;;;;;6136411;22;114250;-78
2023/06/29 09:39:17;;;;;;;11.88;8.82;;;22.50;51.00;;;;;;6086280;23;118617;-80
2023/06/29 09:41:51;;;;;;;8.77;7.85;;;22.50;50.70;;;;;;6112604;23;114564;-79
2023/06/29 09:44:20;;;;;;;10.43;9.15;;;22.60;50.30;;;;;;6112134;23;114364;-79
2023/06/29 09:47:04;;;;;;;9.75;8.85;;;22.80;51.20;;;;;;6111867;23;114191;-78
2023/06/29 09:49:50;;;;;;;8.82;7.63;;;23.00;50.30;;;;;;6113066;22;115374;-79
2023/06/29 09:52:18;;;;;;;10.75;8.48;;;23.10;50.10;;;;;;6112339;22;114873;-79
2023/06/29 09:54:45;;;;;;;9.57;8.00;;;23.10;50.50;;;;;;6112136;23;114445;-79
2023/06/29 09:57:12;;;;;;;8.70;7.13;;;23.10;49.80;;;;;;6111391;22;114457;-79
2023/06/29 09:59:40;;;;;;;8.35;7.30;;;23.20;49.80;;;;;;6110657;23;115423;-79
2023/06/29 10:02:11;;;;;;;8.55;6.93;;;23.20;49.30;;;;;;6109950;23;114648;-79
2023/06/29 10:04:41;;;;;;;7.75;6.75;;;23.20;48.90;;;;;;6111206;23;114673;-79
2023/06/29 10:07:14;;;;;;;11.57;8.02;;;23.20;49.70;;;;;;6112422;23;114260;-80
2023/06/29 10:09:44;;;;;;;9.27;7.50;;;23.30;49.60;;;;;;6086821;23;115337;-79
2023/06/29 10:12:11;;;;;;;10.35;6.43;;;23.30;50.60;;;;;;6109678;23;115116;-79
2023/06/29 10:14:39;;;;;;;8.13;6.50;;;23.20;48.20;;;;;;6110669;23;114500;-79
2023/06/29 10:17:11;;;;;;;8.77;6.20;;;23.10;48.40;;;;;;6111931;23;114318;-79
2023/06/29 10:19:41;;;;;;;7.45;5.75;;;23.00;48.70;;;;;;6109438;23;115174;-79
2023/06/29 10:22:13;;;;;;;8.20;5.72;;;22.80;48.60;;;;;;6109888;23;115998;-79
2023/06/29 10:24:43;;;;;;;6.90;5.50;;;22.70;49.30;;;;;;6110172;23;116562;-79
2023/06/29 10:27:10;;;;;;;8.90;6.13;;;22.70;49.50;;;;;;6112368;23;114438;-79
2023/06/29 10:29:44;;;;;;;10.18;6.68;;;22.80;50.50;;;;;;6109411;23;117134;-79
2023/06/29 10:32:33;;;;;;;8.82;6.65;;;22.90;50.80;;;;;;6110766;23;115102;-79
2023/06/29 10:35:05;;;;;;;9.68;6.80;;;23.10;51.10;;;;;;6112182;23;114182;-79
2023/06/29 10:37:36;;;;;;;7.97;6.47;;;23.10;50.70;;;;;;6086047;23;114718;-80
2023/06/29 10:40:28;;;;;;;8.60;5.93;;;23.30;50.20;;;;;;6109700;23;114996;-79
2023/06/29 10:42:56;;;;;;;8.20;7.07;;;23.40;50.20;;;;;;6103412;23;114684;-79
2023/06/29 10:45:23;;;;;;;7.60;5.90;;;23.40;50.40;;;;;;6135625;22;115492;-78
2023/06/29 10:47:56;;;;;;;7.28;6.32;;;23.50;49.20;;;;;;6112840;22;114122;-79
2023/06/29 10:50:30;;;;;;;6.85;5.80;;;23.50;48.90;;;;;;6110100;23;114852;-79
2023/06/29 10:52:59;;;;;;;9.40;5.53;;;23.60;49.10;;;;;;6111665;22;115712;-79
2023/06/29 10:55:28;;;;;;;7.80;5.65;;;23.70;48.10;;;;;;6111490;22;114442;-79
2023/06/29 10:57:59;;;;;;;6.72;5.80;;;23.80;48.40;;;;;;6112199;22;114148;-78
2023/06/29 11:00:27;;;;;;;7.20;6.05;;;23.90;48.40;;;;;;6109846;23;116069;-79
2023/06/29 11:02:55;;;;;;;7.28;6.00;;;23.90;47.00;;;;;;6134594;22;114658;-77
2023/06/29 11:05:22;;;;;;;8.35;5.35;;;24.00;46.60;;;;;;6111388;23;114301;-79
2023/06/29 11:07:51;;;;;;;6.40;5.20;;;24.10;46.60;;;;;;6112570;23;114232;-78
2023/06/29 11:10:22;;;;;;;6.60;5.32;;;24.10;46.60;;;;;;6108850;23;114967;-79
2023/06/29 11:12:50;;;;;;;6.22;5.10;;;24.10;45.80;;;;;;6110704;23;115439;-79
2023/06/29 11:15:18;;;;;;;6.35;5.75;;;24.20;45.50;;;;;;6111061;23;114343;-79
2023/06/29 11:17:50;;;;;;;6.95;5.68;;;24.10;45.50;;;;;;6136494;22;114562;-79
2023/06/29 11:20:19;;;;;;;6.60;5.68;;;24.00;45.50;;;;;;6109096;23;115759;-79
2023/06/29 11:22:46;;;;;;;7.30;5.47;;;23.90;45.60;;;;;;6111339;23;115076;-78
2023/06/29 11:25:14;;;;;;;7.80;5.95;;;23.80;45.90;;;;;;6110566;23;114128;-80
2023/06/29 11:27:42;;;;;;;6.22;5.47;;;23.80;46.20;;;;;;6087330;23;114439;-79
2023/06/29 11:30:10;;;;;;;6.78;5.50;;;23.80;46.90;;;;;;6110552;23;115087;-80
2023/06/29 11:32:37;;;;;;;6.88;5.20;;;23.70;46.90;;;;;;6111766;22;115168;-79
2023/06/29 11:35:12;;;;;;;8.13;5.60;;;23.80;47.10;;;;;;6112929;22;114375;-79
2023/06/29 11:37:40;;;;;;;6.15;5.53;;;23.90;46.50;;;;;;6110999;23;116613;-79
2023/06/29 11:40:26;;;;;;;7.55;5.60;;;24.00;47.10;;;;;;6110910;23;114927;-79
2023/06/29 11:42:54;;;;;;;7.80;6.47;;;24.10;46.50;;;;;;6084757;23;114699;-82
2023/06/29 11:45:22;;;;;;;6.30;5.32;;;24.00;46.30;;;;;;6110608;23;114466;-77
2023/06/29 11:47:55;;;;;;;7.40;5.32;;;24.00;45.80;;;;;;6111868;23;114281;-79
2023/06/29 11:50:23;;;;;;;7.75;5.07;;;24.00;45.70;;;;;;6109681;23;115019;-79
2023/06/29 11:52:51;;;;;;;7.03;5.10;;;24.00;46.80;;;;;;6111997;22;115173;-79
2023/06/29 11:55:18;;;;;;;7.55;4.90;;;24.10;46.90;;;;;;6110996;23;114289;-80
2023/06/29 11:57:51;;;;;;;5.97;5.38;;;24.10;46.30;;;;;;6113392;22;114198;-80
2023/06/29 12:00:19;;;;;;;7.43;5.75;;;24.20;45.70;;;;;;6084402;23;117950;-79
2023/06/29 12:02:48;;;;;;;5.97;5.05;;;24.10;46.30;;;;;;6110839;23;114863;-78
2023/06/29 12:05:16;;;;;;;5.93;4.80;;;24.10;46.10;;;;;;6111693;23;114301;-80
2023/06/29 12:07:46;;;;;;;5.60;4.65;;;24.10;46.00;;;;;;6110683;23;114438;-78
2023/06/29 12:10:24;;;;;;;5.45;4.53;;;24.20;46.00;;;;;;6110575;22;115008;-79
2023/06/29 12:12:56;;;;;;;6.32;4.70;;;24.30;45.70;;;;;;6109138;23;114567;-78
2023/06/29 12:15:26;;;;;;;5.35;4.50;;;24.30;45.50;;;;;;6113336;23;114505;-79
2023/06/29 12:18:11;;;;;;;6.05;4.60;;;24.40;45.10;;;;;;6112538;23;114266;-80
2023/06/29 12:20:42;;;;;;;7.72;5.07;;;24.50;45.30;;;;;;6110186;23;114756;-79
2023/06/29 12:23:12;;;;;;;7.72;5.03;;;24.50;44.70;;;;;;6108530;23;116227;-80
2023/06/29 12:25:43;;;;;;;7.65;4.70;;;24.40;44.40;;;;;;6108801;23;114409;-79
2023/06/29 12:28:11;;;;;;;5.82;4.70;;;24.30;44.40;;;;;;6133864;22;114874;-80
2023/06/29 12:30:38;;;;;;;8.60;4.78;;;24.30;44.70;;;;;;6109082;23;115010;-79
2023/06/29 12:33:05;;;;;;;6.70;4.30;;;24.20;45.10;;;;;;6109098;23;115562;-79
2023/06/29 12:35:35;;;;;;;7.25;4.72;;;24.30;45.00;;;;;;6084016;23;114477;-77
2023/06/29 12:38:09;;;;;;;6.38;4.57;;;24.30;44.80;;;;;;6133834;22;114897;-79
2023/06/29 12:40:37;;;;;;;7.00;5.10;;;24.20;43.90;;;;;;6109200;23;115075;-78
2023/06/29 12:43:05;;;;;;;5.63;4.53;;;24.10;44.20;;;;;;6106318;23;115337;-79
2023/06/29 12:45:33;;;;;;;5.38;4.35;;;24.00;44.40;;;;;;6108962;23;114175;-79